createdAt,value
2023-02-19T00:01:25.004Z,101870.19
2023-02-19T00:03:53.709Z,101891.28
2023-02-19T00:06:21.156Z,101884.25
2023-02-19T00:08:47.830Z,101880.72
2023-02-19T00:11:17.093Z,101880.69
2023-02-19T00:13:46.097Z,101881.47
2023-02-19T00:16:14.625Z,101886.78
2023-02-19T00:18:41.977Z,101883.22
2023-02-19T00:21:08.854Z,101878.72
2023-02-19T00:23:36.001Z,101885.69
2023-02-19T00:26:17.581Z,101881.31
2023-02-19T00:28:44.819Z,101879.53
2023-02-19T00:31:21.171Z,101878.63
2023-02-19T00:33:48.765Z,101903.22
2023-02-19T00:36:15.555Z,101891.81
2023-02-19T00:38:42.892Z,101900.56
2023-02-19T00:41:19.275Z,101898.81
2023-02-19T00:43:55.677Z,101893.53
2023-02-19T00:46:27.667Z,101906.69
2023-02-19T00:48:54.766Z,101908.38
2023-02-19T00:51:23.326Z,101903.03
2023-02-19T00:53:50.086Z,101914.38
2023-02-19T00:56:16.766Z,101915.25
2023-02-19T00:58:43.269Z,101908.16
2023-02-19T01:01:10.934Z,101910.72
2023-02-19T01:03:38.622Z,101916.84
2023-02-19T01:06:06.203Z,101908.00
2023-02-19T01:08:33.746Z,101914.97
2023-02-19T01:11:01.295Z,101913.19
2023-02-19T01:13:28.512Z,101914.91
2023-02-19T01:16:12.491Z,101916.66
2023-02-19T01:18:39.757Z,101922.75
2023-02-19T01:21:07.669Z,101926.22
2023-02-19T01:23:34.952Z,101921.00
2023-02-19T01:26:05.264Z,101915.78
2023-02-19T01:28:31.770Z,101918.47
2023-02-19T01:31:04.796Z,101924.69
2023-02-19T01:33:31.850Z,101917.66
2023-02-19T01:35:58.425Z,101925.53
2023-02-19T01:38:25.122Z,101923.78
2023-02-19T01:41:14.124Z,101922.03
2023-02-19T01:43:55.731Z,101923.75
2023-02-19T01:46:28.690Z,101915.78
2023-02-19T01:48:57.722Z,101921.94
2023-02-19T01:51:24.290Z,101926.22
2023-02-19T01:53:55.136Z,101924.41
2023-02-19T01:56:22.786Z,101936.66
2023-02-19T01:58:49.362Z,101934.00
2023-02-19T02:01:15.924Z,101933.94
2023-02-19T02:03:45.596Z,101928.75
2023-02-19T02:06:26.293Z,101940.25
2023-02-19T02:09:14.358Z,101945.53
2023-02-19T02:11:45.472Z,101936.72
2023-02-19T02:14:12.337Z,101936.72
2023-02-19T02:16:48.703Z,101941.09
2023-02-19T02:19:34.017Z,101936.72
2023-02-19T02:22:05.767Z,101936.63
2023-02-19T02:24:41.112Z,101936.72
2023-02-19T02:27:18.202Z,101942.16
2023-02-19T02:30:01.796Z,101940.31
2023-02-19T02:32:34.561Z,101940.28
2023-02-19T02:35:08.681Z,101940.25
2023-02-19T02:37:37.731Z,101950.78
2023-02-19T02:40:05.117Z,101948.16
2023-02-19T02:42:33.723Z,101946.34
2023-02-19T02:45:36.584Z,101950.63
2023-02-19T02:48:03.291Z,101943.56
2023-02-19T02:50:34.641Z,101950.59
2023-02-19T02:53:26.762Z,101960.22
2023-02-19T02:55:54.158Z,101953.97
2023-02-19T02:58:22.611Z,101965.31
2023-02-19T03:01:11.677Z,101962.63
2023-02-19T03:03:40.067Z,101956.56
2023-02-19T03:06:07.724Z,101964.47
2023-02-19T03:08:41.313Z,101964.47
2023-02-19T03:11:28.714Z,101969.78
2023-02-19T03:14:25.449Z,101960.91
2023-02-19T03:17:14.668Z,101971.47
2023-02-19T03:19:43.965Z,101978.59
2023-02-19T03:22:34.387Z,101982.16
2023-02-19T03:25:35.687Z,101978.72
2023-02-19T03:28:04.589Z,101981.47
2023-02-19T03:30:38.717Z,101980.59
2023-02-19T03:33:09.974Z,101990.34
2023-02-19T03:35:41.391Z,101995.66
2023-02-19T03:38:25.553Z,101994.69
2023-02-19T03:41:09.790Z,101999.09
2023-02-19T03:43:48.572Z,101997.31
2023-02-19T03:46:40.703Z,101996.38
2023-02-19T03:49:33.114Z,102008.72
2023-02-19T03:52:12.470Z,102014.03
2023-02-19T03:54:47.434Z,102002.53
2023-02-19T03:57:42.251Z,102016.56
2023-02-19T04:00:28.018Z,102012.13
2023-02-19T04:03:02.776Z,102012.19
2023-02-19T04:05:35.996Z,102024.56
2023-02-19T04:08:08.864Z,102007.84
2023-02-19T04:10:35.919Z,102007.09
2023-02-19T04:13:15.318Z,102011.47
2023-02-19T04:15:43.134Z,102024.69
2023-02-19T04:18:14.640Z,102023.91
2023-02-19T04:20:44.807Z,102030.91
2023-02-19T04:23:12.549Z,102023.84
2023-02-19T04:25:40.616Z,102037.94
2023-02-19T04:28:08.064Z,102036.16
2023-02-19T04:30:34.669Z,102033.50
2023-02-19T04:33:01.216Z,102047.56
2023-02-19T04:35:27.696Z,102050.13
2023-02-19T04:37:54.158Z,102055.41
2023-02-19T04:40:20.635Z,102063.28
2023-02-19T04:42:47.126Z,102062.34
2023-02-19T04:45:13.747Z,102072.81
2023-02-19T04:47:40.197Z,102077.16
2023-02-19T04:50:06.800Z,102079.72
2023-02-19T04:52:33.408Z,102077.97
2023-02-19T04:54:59.851Z,102084.09
2023-02-19T04:57:26.340Z,102079.63
2023-02-19T04:59:53.036Z,102091.00
2023-02-19T05:02:19.511Z,102094.47
2023-02-19T05:04:45.943Z,102108.63
2023-02-19T05:07:12.419Z,102104.28
2023-02-19T05:09:39.128Z,102112.34
2023-02-19T05:12:05.972Z,102103.56
2023-02-19T05:14:32.438Z,102122.13
2023-02-19T05:16:58.941Z,102130.16
2023-02-19T05:19:25.391Z,102135.47
2023-02-19T05:21:51.877Z,102137.28
2023-02-19T05:24:19.295Z,102129.41
2023-02-19T05:26:45.777Z,102145.34
2023-02-19T05:29:12.212Z,102148.09
2023-02-19T05:31:38.802Z,102140.31
2023-02-19T05:34:05.284Z,102146.53
2023-02-19T05:36:32.091Z,102143.97
2023-02-19T05:38:58.921Z,102152.78
2023-02-19T05:41:27.341Z,102150.22
2023-02-19T05:43:54.724Z,102156.56
2023-02-19T05:46:23.854Z,102140.03
2023-02-19T05:48:51.517Z,102144.56
2023-02-19T05:51:21.084Z,102149.06
2023-02-19T05:53:48.327Z,102144.78
2023-02-19T05:56:23.829Z,102145.72
2023-02-19T05:58:50.700Z,102146.66
2023-02-19T06:01:18.865Z,102153.66
2023-02-19T06:03:45.700Z,102150.22
2023-02-19T06:06:13.633Z,102161.72
2023-02-19T06:08:40.148Z,102154.72
2023-02-19T06:11:06.686Z,102164.41
2023-02-19T06:13:33.173Z,102171.44
2023-02-19T06:16:00.087Z,102171.44
2023-02-19T06:18:26.612Z,102174.13
2023-02-19T06:20:53.107Z,102178.50
2023-02-19T06:23:19.602Z,102182.88
2023-02-19T06:25:46.113Z,102182.84
2023-02-19T06:28:12.587Z,102188.16
2023-02-19T06:30:39.127Z,102191.63
2023-02-19T06:33:05.675Z,102198.63
2023-02-19T06:35:32.172Z,102194.22
2023-02-19T06:37:58.711Z,102187.16
2023-02-19T06:40:25.224Z,102199.44
2023-02-19T06:42:51.731Z,102200.31
2023-02-19T06:45:18.244Z,102199.41
2023-02-19T06:47:44.743Z,102193.22
2023-02-19T06:50:11.305Z,102203.69
2023-02-19T06:52:37.816Z,102208.88
2023-02-19T06:55:04.628Z,102211.50
2023-02-19T06:57:31.158Z,102208.88
2023-02-19T06:59:57.750Z,102218.53
2023-02-19T07:02:24.280Z,102221.13
2023-02-19T07:04:50.804Z,102220.25
2023-02-19T07:07:17.332Z,102231.59
2023-02-19T07:09:43.808Z,102225.44
2023-02-19T07:12:10.756Z,102236.00
2023-02-19T07:14:37.350Z,102237.72
2023-02-19T07:17:03.854Z,102236.78
2023-02-19T07:19:30.379Z,102237.75
2023-02-19T07:21:56.892Z,102244.72
2023-02-19T07:24:23.662Z,102256.16
2023-02-19T07:26:50.322Z,102263.16
2023-02-19T07:29:16.998Z,102269.31
2023-02-19T07:31:43.526Z,102271.03
2023-02-19T07:34:10.064Z,102278.00
2023-02-19T07:36:36.794Z,102278.81
2023-02-19T07:39:03.826Z,102292.84
2023-02-19T07:41:30.398Z,102296.31
2023-02-19T07:43:56.962Z,102286.63
2023-02-19T07:46:23.713Z,102312.13
2023-02-19T07:48:50.552Z,102309.50
2023-02-19T07:51:19.655Z,102314.88
2023-02-19T07:53:47.237Z,102317.50
2023-02-19T07:56:13.987Z,102326.28
2023-02-19T07:58:40.749Z,102331.59
2023-02-19T08:01:08.568Z,102338.66
2023-02-19T08:03:36.402Z,102339.56
2023-02-19T08:06:03.162Z,102345.69
2023-02-19T08:08:29.746Z,102355.38
2023-02-19T08:11:18.901Z,102356.25
2023-02-19T08:13:48.509Z,102358.09
2023-02-19T08:16:26.699Z,102360.72
2023-02-19T08:18:56.536Z,102361.63
2023-02-19T08:21:23.234Z,102368.56
2023-02-19T08:23:51.181Z,102364.16
2023-02-19T08:26:18.177Z,102365.00
2023-02-19T08:28:44.931Z,102358.78
2023-02-19T08:31:12.318Z,102362.31
2023-02-19T08:33:40.216Z,102359.63
2023-02-19T08:36:08.678Z,102355.19
2023-02-19T08:38:36.416Z,102362.16
2023-02-19T08:41:07.392Z,102358.63
2023-02-19T08:43:34.758Z,102359.44
2023-02-19T08:46:01.551Z,102370.84
2023-02-19T08:48:28.857Z,102373.47
2023-02-19T08:50:56.891Z,102370.78
2023-02-19T08:53:24.193Z,102374.19
2023-02-19T08:55:51.791Z,102383.66
2023-02-19T08:58:18.344Z,102386.06
2023-02-19T09:00:45.194Z,102377.19
2023-02-19T09:03:11.701Z,102358.75
2023-02-19T09:05:38.814Z,102367.50
2023-02-19T09:08:05.599Z,102367.22
2023-02-19T09:10:32.166Z,102365.44
2023-02-19T09:12:58.662Z,102374.09
2023-02-19T09:15:25.325Z,102375.34
2023-02-19T09:17:52.761Z,102375.84
2023-02-19T09:20:19.509Z,102386.59
2023-02-19T09:22:46.385Z,102386.16
2023-02-19T09:25:12.947Z,102386.75
2023-02-19T09:27:39.467Z,102396.06
2023-02-19T09:30:06.455Z,102410.00
2023-02-19T09:32:33.233Z,102410.56
2023-02-19T09:34:59.884Z,102418.09
2023-02-19T09:37:29.434Z,102425.94
2023-02-19T09:39:56.046Z,102423.88
2023-02-19T09:42:24.982Z,102425.09
2023-02-19T09:44:55.122Z,102434.47
2023-02-19T09:47:32.001Z,102440.13
2023-02-19T09:50:07.224Z,102442.88
2023-02-19T09:52:37.717Z,102465.13
2023-02-19T09:55:14.597Z,102475.78
2023-02-19T09:57:41.858Z,102474.84
2023-02-19T10:00:11.717Z,102467.16
2023-02-19T10:02:38.776Z,102466.28
2023-02-19T10:05:15.960Z,102460.13
2023-02-19T10:07:48.044Z,102462.53
2023-02-19T10:10:14.527Z,102476.53
2023-02-19T10:12:47.412Z,102470.59
2023-02-19T10:15:28.856Z,102472.47
2023-02-19T10:17:55.512Z,102476.41
2023-02-19T10:20:24.716Z,102481.13
2023-02-19T10:23:11.603Z,102490.03
2023-02-19T10:25:42.695Z,102506.25
2023-02-19T10:28:29.620Z,102511.66
2023-02-19T10:30:59.207Z,102503.81
2023-02-19T10:33:26.372Z,102518.09
2023-02-19T10:35:57.039Z,102516.56
2023-02-19T10:38:28.324Z,102526.41
2023-02-19T10:41:01.782Z,102526.50
2023-02-19T10:43:34.090Z,102521.41
2023-02-19T10:46:14.584Z,102527.69
2023-02-19T10:48:47.231Z,102519.81
2023-02-19T10:51:20.913Z,102532.94
2023-02-19T10:53:52.590Z,102535.69
2023-02-19T10:56:27.561Z,102526.09
2023-02-19T10:58:54.463Z,102528.66
2023-02-19T11:01:23.519Z,102523.31
2023-02-19T11:03:51.764Z,102526.75
2023-02-19T11:06:20.795Z,102518.88
2023-02-19T11:08:52.112Z,102532.03
2023-02-19T11:11:38.474Z,102525.03
2023-02-19T11:14:16.015Z,102526.78
2023-02-19T11:16:44.953Z,102523.22
2023-02-19T11:19:24.642Z,102518.84
2023-02-19T11:21:51.502Z,102512.56
2023-02-19T11:24:34.334Z,102513.41
2023-02-19T11:27:04.258Z,102519.47
2023-02-19T11:29:34.785Z,102509.72
2023-02-19T11:32:26.284Z,102508.72
2023-02-19T11:35:04.496Z,102512.28
2023-02-19T11:37:31.035Z,102514.78
2023-02-19T11:39:57.553Z,102513.81
2023-02-19T11:42:29.589Z,102500.53
2023-02-19T11:44:59.282Z,102516.41
2023-02-19T11:47:37.954Z,102518.06
2023-02-19T11:50:19.755Z,102516.19
2023-02-19T11:52:52.263Z,102507.22
2023-02-19T11:55:32.517Z,102506.09
2023-02-19T11:58:09.681Z,102499.25
2023-02-19T12:00:47.817Z,102496.50
2023-02-19T12:03:20.778Z,102508.06
2023-02-19T12:05:56.605Z,102516.81
2023-02-19T12:08:47.226Z,102523.78
2023-02-19T12:11:35.502Z,102524.78
2023-02-19T12:14:17.501Z,102525.84
2023-02-19T12:17:09.399Z,102529.59
2023-02-19T12:19:45.069Z,102523.59
2023-02-19T12:22:28.043Z,102536.72
2023-02-19T12:25:00.783Z,102529.75
2023-02-19T12:27:37.458Z,102534.88
2023-02-19T12:30:19.232Z,102536.47
2023-02-19T12:33:04.541Z,102546.63
2023-02-19T12:35:59.058Z,102547.69
2023-02-19T12:38:35.192Z,102560.06
2023-02-19T12:41:43.180Z,102556.69
2023-02-19T12:44:19.939Z,102557.72
2023-02-19T12:46:53.432Z,102567.31
2023-02-19T12:49:35.736Z,102580.63
2023-02-19T12:52:08.158Z,102586.72
2023-02-19T12:54:38.155Z,102579.47
2023-02-19T12:57:17.503Z,102588.69
2023-02-19T12:59:49.630Z,102595.84
2023-02-19T13:02:24.555Z,102599.41
2023-02-19T13:05:15.728Z,102603.75
2023-02-19T13:07:54.472Z,102602.75
2023-02-19T13:10:49.890Z,102613.44
2023-02-19T13:13:23.912Z,102619.84
2023-02-19T13:15:53.535Z,102622.59
2023-02-19T13:18:24.679Z,102627.03
2023-02-19T13:20:51.906Z,102624.31
2023-02-19T13:23:59.742Z,102618.00
2023-02-19T13:26:49.225Z,102617.66
2023-02-19T13:29:25.541Z,102611.78
2023-02-19T13:32:10.696Z,102617.88
2023-02-19T13:34:56.191Z,102617.41
2023-02-19T13:37:23.124Z,102628.16
2023-02-19T13:39:51.664Z,102626.56
2023-02-19T13:42:31.514Z,102630.03
2023-02-19T13:44:58.894Z,102638.25
2023-02-19T13:47:58.841Z,102640.28
2023-02-19T13:50:30.242Z,102654.03
2023-02-19T13:52:58.413Z,102660.66
2023-02-19T13:55:51.650Z,102664.03
2023-02-19T13:58:33.212Z,102669.47
2023-02-19T14:01:01.655Z,102663.44
2023-02-19T14:03:31.052Z,102660.16
2023-02-19T14:06:04.394Z,102668.13
2023-02-19T14:08:50.394Z,102662.91
2023-02-19T14:11:17.976Z,102663.03
2023-02-19T14:13:47.498Z,102671.19
2023-02-19T14:16:51.016Z,102678.41
2023-02-19T14:19:36.237Z,102674.09
2023-02-19T14:22:04.824Z,102671.44
2023-02-19T14:24:33.428Z,102664.34
2023-02-19T14:27:00.400Z,102665.22
2023-02-19T14:29:28.179Z,102673.28
2023-02-19T14:31:55.225Z,102680.28
2023-02-19T14:34:23.575Z,102684.59
2023-02-19T14:36:53.954Z,102667.94
2023-02-19T14:39:24.410Z,102662.53
2023-02-19T14:42:07.502Z,102658.97
2023-02-19T14:44:57.337Z,102652.84
2023-02-19T14:47:26.030Z,102652.69
2023-02-19T14:49:57.864Z,102655.31
2023-02-19T14:52:28.383Z,102658.91
2023-02-19T14:55:01.530Z,102658.94
2023-02-19T14:57:34.348Z,102651.03
2023-02-19T15:00:03.958Z,102648.50
2023-02-19T15:02:32.281Z,102645.84
2023-02-19T15:04:58.933Z,102649.31
2023-02-19T15:07:30.390Z,102652.91
2023-02-19T15:10:04.794Z,102654.63
2023-02-19T15:12:46.350Z,102653.75
2023-02-19T15:15:18.717Z,102664.38
2023-02-19T15:17:45.333Z,102668.81
2023-02-19T15:20:17.425Z,102660.16
2023-02-19T15:22:44.027Z,102667.22
2023-02-19T15:25:17.726Z,102668.06
2023-02-19T15:27:44.553Z,102670.72
2023-02-19T15:30:28.596Z,102677.81
2023-02-19T15:32:59.753Z,102680.47
2023-02-19T15:35:28.021Z,102674.41
2023-02-19T15:37:57.971Z,102674.41
2023-02-19T15:40:31.373Z,102668.31
2023-02-19T15:42:59.216Z,102683.28
2023-02-19T15:45:32.124Z,102684.13
2023-02-19T15:48:18.549Z,102691.16
2023-02-19T15:50:51.978Z,102676.28
2023-02-19T15:53:24.786Z,102685.19
2023-02-19T15:56:06.493Z,102683.44
2023-02-19T15:58:43.686Z,102692.22
2023-02-19T16:01:19.179Z,102713.28
2023-02-19T16:03:45.880Z,102720.31
2023-02-19T16:06:17.869Z,102722.97
2023-02-19T16:09:02.178Z,102714.19
2023-02-19T16:11:40.569Z,102721.19
2023-02-19T16:14:24.232Z,102725.59
2023-02-19T16:16:55.868Z,102726.44
2023-02-19T16:19:30.565Z,102723.81
2023-02-19T16:21:58.430Z,102723.81
2023-02-19T16:24:41.181Z,102721.19
2023-02-19T16:27:08.043Z,102725.56
2023-02-19T16:29:34.898Z,102722.06
2023-02-19T16:32:04.101Z,102717.69
2023-02-19T16:34:50.789Z,102710.69
2023-02-19T16:37:33.730Z,102711.59
2023-02-19T16:40:09.291Z,102714.22
2023-02-19T16:42:36.972Z,102723.00
2023-02-19T16:45:03.944Z,102716.00
2023-02-19T16:47:37.770Z,102710.72
2023-02-19T16:50:11.582Z,102706.38
2023-02-19T16:52:39.360Z,102700.22
2023-02-19T16:55:13.035Z,102708.97
2023-02-19T16:57:39.867Z,102708.97
2023-02-19T17:00:06.673Z,102716.03
2023-02-19T17:02:33.890Z,102724.78
2023-02-19T17:05:00.671Z,102724.78
2023-02-19T17:07:27.689Z,102732.66
2023-02-19T17:09:54.179Z,102737.91
2023-02-19T17:12:21.375Z,102744.94
2023-02-19T17:14:47.924Z,102739.69
2023-02-19T17:17:14.580Z,102734.44
2023-02-19T17:19:41.223Z,102736.19
2023-02-19T17:22:08.047Z,102732.63
2023-02-19T17:24:34.713Z,102730.88
2023-02-19T17:27:01.271Z,102731.75
2023-02-19T17:29:28.610Z,102743.13
2023-02-19T17:31:55.255Z,102753.63
2023-02-19T17:34:21.763Z,102744.88
2023-02-19T17:36:48.295Z,102748.34
2023-02-19T17:39:15.445Z,102743.09
2023-02-19T17:41:42.386Z,102743.06
2023-02-19T17:44:09.390Z,102745.69
2023-02-19T17:46:36.554Z,102752.69
2023-02-19T17:49:03.225Z,102753.56
2023-02-19T17:51:29.799Z,102744.78
2023-02-19T17:53:56.305Z,102746.53
2023-02-19T17:56:26.564Z,102752.66
2023-02-19T17:58:54.346Z,102759.66
2023-02-19T18:01:21.474Z,102764.94
2023-02-19T18:03:48.459Z,102767.56
2023-02-19T18:06:14.956Z,102766.69
2023-02-19T18:08:48.185Z,102765.84
2023-02-19T18:11:14.901Z,102767.56
2023-02-19T18:13:41.476Z,102762.31
2023-02-19T18:16:08.222Z,102755.34
2023-02-19T18:18:34.725Z,102743.97
2023-02-19T18:21:01.272Z,102746.59
2023-02-19T18:23:27.786Z,102743.97
2023-02-19T18:25:54.528Z,102743.09
2023-02-19T18:28:21.071Z,102736.09
2023-02-19T18:30:47.783Z,102721.22
2023-02-19T18:33:14.446Z,102722.09
2023-02-19T18:35:41.006Z,102723.84
2023-02-19T18:38:07.704Z,102703.69
2023-02-19T18:40:34.328Z,102696.69
2023-02-19T18:43:00.863Z,102694.91
2023-02-19T18:45:29.642Z,102707.19
2023-02-19T18:47:56.236Z,102714.19
2023-02-19T18:50:22.775Z,102720.31
2023-02-19T18:52:49.707Z,102725.56
2023-02-19T18:55:16.293Z,102715.94
2023-02-19T18:57:42.881Z,102710.69
2023-02-19T19:00:10.266Z,102711.53
2023-02-19T19:02:48.865Z,102716.78
2023-02-19T19:05:22.938Z,102730.78
2023-02-19T19:07:51.229Z,102737.81
2023-02-19T19:10:18.513Z,102729.94
2023-02-19T19:12:45.119Z,102722.03
2023-02-19T19:15:11.740Z,102739.56
2023-02-19T19:17:39.174Z,102734.31
2023-02-19T19:20:06.579Z,102733.41
2023-02-19T19:22:33.235Z,102723.78
2023-02-19T19:25:00.246Z,102730.78
2023-02-19T19:27:26.847Z,102726.41
2023-02-19T19:29:53.582Z,102721.16
2023-02-19T19:32:20.121Z,102722.03
2023-02-19T19:34:47.571Z,102718.56
2023-02-19T19:37:14.162Z,102713.31
2023-02-19T19:39:42.799Z,102719.41
2023-02-19T19:42:09.868Z,102721.19
2023-02-19T19:44:36.566Z,102731.69
2023-02-19T19:47:03.114Z,102729.97
2023-02-19T19:49:29.811Z,102722.94
2023-02-19T19:52:00.934Z,102715.06
2023-02-19T19:54:28.201Z,102721.19
2023-02-19T19:56:54.767Z,102714.19
2023-02-19T19:59:22.430Z,102720.31
2023-02-19T20:01:54.696Z,102710.69
2023-02-19T20:04:22.424Z,102710.72
2023-02-19T20:06:49.140Z,102715.94
2023-02-19T20:09:16.961Z,102721.19
2023-02-19T20:11:47.915Z,102715.06
2023-02-19T20:14:15.172Z,102717.69
2023-02-19T20:16:44.554Z,102714.19
2023-02-19T20:19:11.372Z,102708.94
2023-02-19T20:21:37.911Z,102707.19
2023-02-19T20:24:04.812Z,102707.19
2023-02-19T20:26:32.213Z,102701.06
2023-02-19T20:28:58.857Z,102708.06
2023-02-19T20:31:25.947Z,102719.44
2023-02-19T20:33:52.734Z,102707.19
2023-02-19T20:36:20.219Z,102701.06
2023-02-19T20:38:48.828Z,102710.69
2023-02-19T20:41:15.369Z,102698.44
2023-02-19T20:43:41.918Z,102694.91
2023-02-19T20:46:08.465Z,102685.31
2023-02-19T20:48:35.151Z,102682.69
2023-02-19T20:51:01.982Z,102692.28
2023-02-19T20:53:29.967Z,102690.53
2023-02-19T20:55:56.657Z,102680.91
2023-02-19T20:58:24.129Z,102689.66
2023-02-19T21:00:53.479Z,102688.78
2023-02-19T21:03:20.908Z,102683.53
2023-02-19T21:05:47.523Z,102682.69
2023-02-19T21:08:15.021Z,102683.53
2023-02-19T21:10:41.577Z,102680.03
2023-02-19T21:13:08.091Z,102685.31
2023-02-19T21:15:34.658Z,102685.31
2023-02-19T21:18:01.491Z,102690.56
2023-02-19T21:20:28.030Z,102681.78
2023-02-19T21:22:54.894Z,102673.03
2023-02-19T21:25:21.532Z,102674.78
2023-02-19T21:27:48.048Z,102677.41
2023-02-19T21:30:14.827Z,102675.66
2023-02-19T21:32:41.454Z,102674.78
2023-02-19T21:35:08.130Z,102673.03
2023-02-19T21:37:34.640Z,102660.78
2023-02-19T21:40:01.429Z,102660.78
2023-02-19T21:42:27.974Z,102650.25
2023-02-19T21:44:54.510Z,102656.41
2023-02-19T21:47:21.122Z,102657.28
2023-02-19T21:49:47.635Z,102645.03
2023-02-19T21:52:14.223Z,102638.00
2023-02-19T21:54:40.884Z,102643.25
2023-02-19T21:57:09.382Z,102642.38
2023-02-19T21:59:36.245Z,102638.00
2023-02-19T22:02:02.870Z,102652.00
2023-02-19T22:04:29.402Z,102643.28
2023-02-19T22:06:56.766Z,102638.91
2023-02-19T22:09:23.406Z,102645.00
2023-02-19T22:11:49.928Z,102649.38
2023-02-19T22:14:16.641Z,102643.25
2023-02-19T22:16:43.283Z,102638.00
2023-02-19T22:19:10.005Z,102652.88
2023-02-19T22:21:36.558Z,102644.13
2023-02-19T22:24:03.294Z,102652.03
2023-02-19T22:26:34.423Z,102632.72
2023-02-19T22:29:05.943Z,102631.88
2023-02-19T22:31:33.301Z,102630.97
2023-02-19T22:34:00.044Z,102629.22
2023-02-19T22:36:28.626Z,102613.47
2023-02-19T22:38:55.194Z,102619.59
2023-02-19T22:41:21.863Z,102621.38
2023-02-19T22:43:49.033Z,102616.13
2023-02-19T22:46:19.216Z,102620.47
2023-02-19T22:48:46.417Z,102624.84
2023-02-19T22:51:15.211Z,102630.97
2023-02-19T22:53:45.548Z,102636.25
2023-02-19T22:56:13.974Z,102622.25
2023-02-19T22:58:41.229Z,102619.63
2023-02-19T23:01:08.956Z,102625.75
2023-02-19T23:03:42.623Z,102619.59
2023-02-19T23:06:09.286Z,102615.25
2023-02-19T23:08:35.826Z,102609.97
2023-02-19T23:11:02.326Z,102612.59
2023-02-19T23:13:28.923Z,102606.50
2023-02-19T23:15:55.633Z,102610.00
2023-02-19T23:18:22.097Z,102600.34
2023-02-19T23:20:48.580Z,102593.34
2023-02-19T23:23:15.068Z,102595.09
2023-02-19T23:25:41.997Z,102594.22
2023-02-19T23:28:08.668Z,102582.84
2023-02-19T23:30:35.297Z,102585.47
2023-02-19T23:33:02.151Z,102574.97
2023-02-19T23:35:28.839Z,102588.09
2023-02-19T23:37:55.831Z,102574.09
2023-02-19T23:40:22.441Z,102581.97
2023-02-19T23:42:48.989Z,102573.19
2023-02-19T23:45:16.606Z,102575.81
2023-02-19T23:47:43.148Z,102565.31
2023-02-19T23:50:10.052Z,102561.84
2023-02-19T23:52:36.588Z,102556.59
2023-02-19T23:55:03.067Z,102567.09
2023-02-19T23:57:29.582Z,102564.47
2023-02-19T23:59:56.201Z,102564.47
